UAE67 VOHS-VABB
Flight info
| Callsign | UAE67 |
|---|---|
| Flight time | 0h 56m |
| Altitude | 36000 |
| Route | TAMIV5 APUSU W18 OPAKA EMRAK2A |
| Aircraft | A388/J-SADE2E3FGHIJ3J4J5M1RWXY/LB1D1 |
Departure
| Time | 2026-04-22 05:12 |
|---|---|
| Airport | Rajiv Gandhi International Airport (VOHS) |
Arrival
| Time | 2026-04-22 06:09 |
|---|---|
| Airport | Chhatrapati Shivaji Maharaj International Airport (VABB) |
| Time | Latitude | Longitude | Altitude | Speed | Heading |
|---|---|---|---|---|---|
| 2026-04-22 04:27 | 17.23412 | 78.42970 | 1988 ft | 0 kts | 360° |
| 2026-04-22 04:58 | 17.23401 | 78.42970 | 1988 ft | 2 kts | 360° |
| 2026-04-22 04:58 | 17.23386 | 78.42970 | 1986 ft | 2 kts | 0° |
| 2026-04-22 04:59 | 17.23369 | 78.42969 | 1986 ft | 2 kts | 7° |
| 2026-04-22 04:59 | 17.23354 | 78.42963 | 1985 ft | 2 kts | 26° |
| 2026-04-22 04:59 | 17.23340 | 78.42953 | 1985 ft | 2 kts | 37° |
| 2026-04-22 04:59 | 17.23331 | 78.42940 | 1984 ft | 2 kts | 66° |
| 2026-04-22 05:00 | 17.23330 | 78.42928 | 1985 ft | 0 kts | 85° |
| 2026-04-22 05:03 | 17.23330 | 78.42929 | 1985 ft | 0 kts | 85° |
| 2026-04-22 05:03 | 17.23332 | 78.42958 | 1986 ft | 8 kts | 85° |
| 2026-04-22 05:03 | 17.23333 | 78.43028 | 1987 ft | 10 kts | 90° |
| 2026-04-22 05:03 | 17.23332 | 78.43103 | 1987 ft | 11 kts | 101° |
| 2026-04-22 05:04 | 17.23307 | 78.43146 | 1986 ft | 8 kts | 144° |
| 2026-04-22 05:04 | 17.23260 | 78.43185 | 1987 ft | 7 kts | 123° |
| 2026-04-22 05:04 | 17.23245 | 78.43249 | 1984 ft | 12 kts | 94° |
| 2026-04-22 05:04 | 17.23247 | 78.43350 | 1984 ft | 16 kts | 88° |
| 2026-04-22 05:05 | 17.23250 | 78.43480 | 1984 ft | 20 kts | 89° |
| 2026-04-22 05:05 | 17.23251 | 78.43588 | 1984 ft | 15 kts | 89° |
| 2026-04-22 05:05 | 17.23252 | 78.43713 | 1985 ft | 19 kts | 89° |
| 2026-04-22 05:05 | 17.23254 | 78.43860 | 1985 ft | 22 kts | 88° |
| 2026-04-22 05:06 | 17.23260 | 78.44027 | 1988 ft | 22 kts | 89° |
| 2026-04-22 05:06 | 17.23261 | 78.44153 | 1989 ft | 16 kts | 90° |
| 2026-04-22 05:06 | 17.23261 | 78.44257 | 1988 ft | 14 kts | 90° |
| 2026-04-22 05:06 | 17.23252 | 78.44346 | 1989 ft | 10 kts | 132° |
| 2026-04-22 05:07 | 17.23178 | 78.44367 | 1989 ft | 13 kts | 180° |
| 2026-04-22 05:07 | 17.23106 | 78.44407 | 1988 ft | 14 kts | 105° |
| 2026-04-22 05:07 | 17.23103 | 78.44520 | 1986 ft | 18 kts | 88° |
| 2026-04-22 05:07 | 17.23106 | 78.44662 | 1985 ft | 21 kts | 89° |
| 2026-04-22 05:08 | 17.23108 | 78.44830 | 1986 ft | 25 kts | 89° |
| 2026-04-22 05:08 | 17.23111 | 78.45014 | 1987 ft | 25 kts | 89° |
| 2026-04-22 05:08 | 17.23113 | 78.45176 | 1988 ft | 18 kts | 89° |
| 2026-04-22 05:08 | 17.23114 | 78.45276 | 1988 ft | 10 kts | 103° |
| 2026-04-22 05:09 | 17.23057 | 78.45317 | 1988 ft | 13 kts | 169° |
| 2026-04-22 05:09 | 17.22964 | 78.45296 | 1988 ft | 15 kts | 210° |
| 2026-04-22 05:09 | 17.22908 | 78.45238 | 1990 ft | 6 kts | 256° |
| 2026-04-22 05:09 | 17.22909 | 78.45206 | 1989 ft | 0 kts | 269° |
| 2026-04-22 05:11 | 17.22908 | 78.44975 | 1986 ft | 63 kts | 269° |
| 2026-04-22 05:11 | 17.22901 | 78.44327 | 1986 ft | 114 kts | 270° |
| 2026-04-22 05:11 | 17.22882 | 78.43377 | 1990 ft | 146 kts | 270° |
| 2026-04-22 05:12 | 17.22876 | 78.42248 | 2081 ft | 157 kts | 277° |
| 2026-04-22 05:12 | 17.22900 | 78.41134 | 2468 ft | 155 kts | 280° |
| 2026-04-22 05:12 | 17.23001 | 78.39930 | 2546 ft | 175 kts | 281° |
| 2026-04-22 05:12 | 17.23091 | 78.38625 | 2654 ft | 185 kts | 277° |
| 2026-04-22 05:13 | 17.23119 | 78.37241 | 2762 ft | 195 kts | 274° |
| 2026-04-22 05:13 | 17.23092 | 78.35764 | 2833 ft | 214 kts | 272° |
| 2026-04-22 05:13 | 17.23044 | 78.34140 | 3077 ft | 234 kts | 272° |
| 2026-04-22 05:13 | 17.23109 | 78.32368 | 3321 ft | 254 kts | 280° |
| 2026-04-22 05:14 | 17.23550 | 78.30526 | 3683 ft | 267 kts | 289° |
| 2026-04-22 05:14 | 17.24107 | 78.28664 | 4326 ft | 268 kts | 289° |
| 2026-04-22 05:14 | 17.24359 | 78.27806 | 4623 ft | 268 kts | 288° |
| 2026-04-22 05:14 | 17.24741 | 78.26439 | 5277 ft | 268 kts | 285° |
| 2026-04-22 05:15 | 17.25213 | 78.24551 | 6246 ft | 271 kts | 285° |
| 2026-04-22 05:15 | 17.25705 | 78.22617 | 7032 ft | 280 kts | 285° |
| 2026-04-22 05:15 | 17.26243 | 78.20621 | 7772 ft | 289 kts | 287° |
| 2026-04-22 05:15 | 17.26821 | 78.18579 | 8604 ft | 296 kts | 287° |
| 2026-04-22 05:16 | 17.27426 | 78.16483 | 9399 ft | 304 kts | 288° |
| 2026-04-22 05:16 | 17.28048 | 78.14351 | 10279 ft | 309 kts | 288° |
| 2026-04-22 05:16 | 17.28697 | 78.12126 | 10690 ft | 331 kts | 288° |
| 2026-04-22 05:16 | 17.29392 | 78.09743 | 10985 ft | 353 kts | 288° |
| 2026-04-22 05:17 | 17.30118 | 78.07247 | 11611 ft | 362 kts | 288° |
| 2026-04-22 05:17 | 17.30847 | 78.04730 | 12516 ft | 362 kts | 288° |
| 2026-04-22 05:17 | 17.31583 | 78.02194 | 13292 ft | 367 kts | 288° |
| 2026-04-22 05:17 | 17.32327 | 77.99625 | 14050 ft | 371 kts | 288° |
| 2026-04-22 05:18 | 17.33833 | 77.94436 | 15479 ft | 377 kts | 287° |
| 2026-04-22 05:18 | 17.34595 | 77.91807 | 16245 ft | 377 kts | 287° |
| 2026-04-22 05:18 | 17.35358 | 77.89170 | 16962 ft | 380 kts | 287° |
| 2026-04-22 05:19 | 17.36127 | 77.86509 | 17654 ft | 383 kts | 287° |
| 2026-04-22 05:19 | 17.36912 | 77.83831 | 18344 ft | 386 kts | 287° |
| 2026-04-22 05:19 | 17.37697 | 77.81148 | 19096 ft | 384 kts | 286° |
| 2026-04-22 05:19 | 17.38469 | 77.78457 | 19693 ft | 389 kts | 286° |
| 2026-04-22 05:20 | 17.39248 | 77.75731 | 20319 ft | 392 kts | 285° |
| 2026-04-22 05:20 | 17.40084 | 77.73003 | 20991 ft | 396 kts | 291° |
| 2026-04-22 05:20 | 17.41482 | 77.70504 | 21612 ft | 402 kts | 306° |
| 2026-04-22 05:20 | 17.43410 | 77.68413 | 22163 ft | 408 kts | 314° |
| 2026-04-22 05:21 | 17.45528 | 77.66407 | 22696 ft | 413 kts | 315° |
| 2026-04-22 05:21 | 17.47682 | 77.64394 | 23265 ft | 416 kts | 315° |
| 2026-04-22 05:21 | 17.49836 | 77.62350 | 23775 ft | 420 kts | 314° |
| 2026-04-22 05:21 | 17.51990 | 77.60273 | 24263 ft | 422 kts | 313° |
| 2026-04-22 05:22 | 17.54151 | 77.58168 | 24728 ft | 426 kts | 313° |
| 2026-04-22 05:22 | 17.56329 | 77.56035 | 25189 ft | 430 kts | 313° |
| 2026-04-22 05:22 | 17.57779 | 77.54614 | 25487 ft | 431 kts | 313° |
| 2026-04-22 05:22 | 17.59975 | 77.52460 | 25869 ft | 434 kts | 313° |
| 2026-04-22 05:23 | 17.62187 | 77.50289 | 26272 ft | 437 kts | 312° |
| 2026-04-22 05:23 | 17.64409 | 77.48108 | 26709 ft | 439 kts | 312° |
| 2026-04-22 05:23 | 17.66650 | 77.45909 | 27156 ft | 442 kts | 312° |
| 2026-04-22 05:23 | 17.68899 | 77.43699 | 27617 ft | 445 kts | 312° |
| 2026-04-22 05:24 | 17.71163 | 77.41474 | 28132 ft | 447 kts | 312° |
| 2026-04-22 05:24 | 17.73444 | 77.39233 | 28620 ft | 451 kts | 311° |
| 2026-04-22 05:24 | 17.75741 | 77.36975 | 29109 ft | 454 kts | 311° |
| 2026-04-22 05:24 | 17.78053 | 77.34701 | 29624 ft | 457 kts | 311° |
| 2026-04-22 05:25 | 17.80381 | 77.32411 | 30121 ft | 461 kts | 311° |
| 2026-04-22 05:25 | 17.82728 | 77.30100 | 30522 ft | 465 kts | 311° |
| 2026-04-22 05:25 | 17.85099 | 77.27765 | 30926 ft | 469 kts | 310° |
| 2026-04-22 05:25 | 17.87488 | 77.25412 | 31340 ft | 473 kts | 310° |
| 2026-04-22 05:26 | 17.89899 | 77.23037 | 31741 ft | 477 kts | 310° |
| 2026-04-22 05:26 | 17.92333 | 77.20636 | 32083 ft | 483 kts | 310° |
| 2026-04-22 05:26 | 17.94786 | 77.18217 | 32481 ft | 487 kts | 309° |
| 2026-04-22 05:26 | 17.97267 | 77.15769 | 32865 ft | 491 kts | 309° |
| 2026-04-22 05:27 | 17.99763 | 77.13306 | 33236 ft | 495 kts | 309° |
| 2026-04-22 05:27 | 18.02280 | 77.10821 | 33653 ft | 499 kts | 309° |
| 2026-04-22 05:27 | 18.04819 | 77.08313 | 34032 ft | 503 kts | 309° |
| 2026-04-22 05:27 | 18.07373 | 77.05790 | 34389 ft | 506 kts | 308° |
| 2026-04-22 05:28 | 18.09942 | 77.03252 | 34805 ft | 508 kts | 308° |
| 2026-04-22 05:28 | 18.12519 | 77.00705 | 35262 ft | 508 kts | 308° |
| 2026-04-22 05:28 | 18.15089 | 76.98166 | 35793 ft | 507 kts | 308° |
| 2026-04-22 05:28 | 18.17673 | 76.95606 | 35963 ft | 515 kts | 308° |
| 2026-04-22 05:29 | 18.20303 | 76.92993 | 35970 ft | 526 kts | 308° |
| 2026-04-22 05:29 | 18.22988 | 76.90326 | 35966 ft | 537 kts | 308° |
| 2026-04-22 05:29 | 18.25734 | 76.87600 | 35964 ft | 548 kts | 309° |
| 2026-04-22 05:29 | 18.28520 | 76.84840 | 35971 ft | 551 kts | 309° |
| 2026-04-22 05:30 | 18.31247 | 76.82158 | 35967 ft | 523 kts | 308° |
| 2026-04-22 05:30 | 18.33876 | 76.79569 | 35999 ft | 517 kts | 308° |
| 2026-04-22 05:30 | 18.39169 | 76.74293 | 35969 ft | 527 kts | 308° |
| 2026-04-22 05:31 | 18.44505 | 76.68984 | 35971 ft | 528 kts | 308° |
| 2026-04-22 05:31 | 18.49840 | 76.63678 | 35971 ft | 528 kts | 308° |
| 2026-04-22 05:32 | 18.55188 | 76.58351 | 35968 ft | 532 kts | 308° |
| 2026-04-22 05:32 | 18.60538 | 76.53018 | 35967 ft | 533 kts | 308° |
| 2026-04-22 05:33 | 18.65926 | 76.47646 | 35969 ft | 532 kts | 308° |
| 2026-04-22 05:33 | 18.71303 | 76.42277 | 35968 ft | 532 kts | 308° |
| 2026-04-22 05:34 | 18.76675 | 76.36909 | 35967 ft | 532 kts | 308° |
| 2026-04-22 05:34 | 18.82040 | 76.31541 | 35970 ft | 532 kts | 308° |
| 2026-04-22 05:35 | 18.87418 | 76.26156 | 35966 ft | 532 kts | 308° |
| 2026-04-22 05:35 | 18.92786 | 76.20777 | 35969 ft | 532 kts | 308° |
| 2026-04-22 05:36 | 18.98145 | 76.15402 | 35968 ft | 530 kts | 308° |
| 2026-04-22 05:36 | 19.03488 | 76.10036 | 35970 ft | 530 kts | 308° |
| 2026-04-22 05:37 | 19.08826 | 76.04669 | 35964 ft | 530 kts | 308° |
| 2026-04-22 05:37 | 19.14165 | 75.99299 | 35963 ft | 530 kts | 308° |
| 2026-04-22 05:38 | 19.19504 | 75.93923 | 35962 ft | 529 kts | 308° |
| 2026-04-22 05:38 | 19.24836 | 75.88549 | 35970 ft | 530 kts | 308° |
| 2026-04-22 05:39 | 19.30148 | 75.83192 | 35960 ft | 527 kts | 308° |
| 2026-04-22 05:39 | 19.35449 | 75.77838 | 35977 ft | 527 kts | 308° |
| 2026-04-22 05:40 | 19.40751 | 75.72479 | 35962 ft | 523 kts | 308° |
| 2026-04-22 05:40 | 19.43346 | 75.69865 | 35962 ft | 508 kts | 308° |
| 2026-04-22 05:40 | 19.45808 | 75.67250 | 35962 ft | 494 kts | 302° |
| 2026-04-22 05:41 | 19.47803 | 75.64338 | 35966 ft | 483 kts | 292° |
| 2026-04-22 05:41 | 19.49290 | 75.61188 | 35963 ft | 474 kts | 283° |
| 2026-04-22 05:41 | 19.50750 | 75.54594 | 35963 ft | 456 kts | 269° |
| 2026-04-22 05:42 | 19.51408 | 75.47895 | 35969 ft | 457 kts | 269° |
| 2026-04-22 05:42 | 19.52096 | 75.41159 | 35978 ft | 465 kts | 269° |
| 2026-04-22 05:43 | 19.52787 | 75.34349 | 35965 ft | 460 kts | 269° |
| 2026-04-22 05:43 | 19.53464 | 75.27609 | 35965 ft | 461 kts | 270° |
| 2026-04-22 05:44 | 19.54138 | 75.20846 | 35959 ft | 462 kts | 270° |
| 2026-04-22 05:44 | 19.54811 | 75.14089 | 35920 ft | 457 kts | 270° |
| 2026-04-22 05:45 | 19.55144 | 75.10770 | 35538 ft | 452 kts | 270° |
| 2026-04-22 05:45 | 19.55470 | 75.07458 | 34785 ft | 452 kts | 270° |
| 2026-04-22 05:45 | 19.55795 | 75.04122 | 33802 ft | 458 kts | 272° |
| 2026-04-22 05:45 | 19.56124 | 75.00748 | 32893 ft | 461 kts | 272° |
| 2026-04-22 05:46 | 19.56457 | 74.97378 | 32186 ft | 458 kts | 273° |
| 2026-04-22 05:46 | 19.56788 | 74.94027 | 31494 ft | 457 kts | 273° |
| 2026-04-22 05:46 | 19.57116 | 74.90684 | 30800 ft | 456 kts | 274° |
| 2026-04-22 05:46 | 19.57407 | 74.87342 | 30086 ft | 454 kts | 270° |
| 2026-04-22 05:47 | 19.57179 | 74.84025 | 29356 ft | 449 kts | 257° |
| 2026-04-22 05:47 | 19.56366 | 74.80770 | 29076 ft | 466 kts | 253° |
| 2026-04-22 05:47 | 19.55487 | 74.77440 | 28974 ft | 466 kts | 253° |
| 2026-04-22 05:47 | 19.54658 | 74.74225 | 28795 ft | 451 kts | 253° |
| 2026-04-22 05:48 | 19.53838 | 74.71023 | 28731 ft | 440 kts | 253° |
| 2026-04-22 05:48 | 19.53033 | 74.67884 | 28674 ft | 442 kts | 253° |
| 2026-04-22 05:48 | 19.52225 | 74.64742 | 28238 ft | 442 kts | 253° |
| 2026-04-22 05:48 | 19.51427 | 74.61648 | 27459 ft | 443 kts | 253° |
| 2026-04-22 05:49 | 19.50609 | 74.58476 | 26603 ft | 446 kts | 253° |
| 2026-04-22 05:49 | 19.49795 | 74.55326 | 26108 ft | 439 kts | 253° |
| 2026-04-22 05:49 | 19.49001 | 74.52248 | 25766 ft | 428 kts | 253° |
| 2026-04-22 05:49 | 19.48218 | 74.49218 | 25032 ft | 427 kts | 253° |
| 2026-04-22 05:50 | 19.47429 | 74.46173 | 24367 ft | 427 kts | 253° |
| 2026-04-22 05:50 | 19.46639 | 74.43121 | 23998 ft | 419 kts | 253° |
| 2026-04-22 05:50 | 19.45880 | 74.40196 | 23453 ft | 416 kts | 254° |
| 2026-04-22 05:50 | 19.45110 | 74.37231 | 22567 ft | 419 kts | 253° |
| 2026-04-22 05:51 | 19.44342 | 74.34274 | 22046 ft | 412 kts | 253° |
| 2026-04-22 05:51 | 19.43592 | 74.31382 | 21741 ft | 403 kts | 254° |
| 2026-04-22 05:51 | 19.42852 | 74.28536 | 21213 ft | 399 kts | 254° |
| 2026-04-22 05:51 | 19.42120 | 74.25724 | 20997 ft | 393 kts | 254° |
| 2026-04-22 05:52 | 19.41391 | 74.22923 | 20950 ft | 396 kts | 254° |
| 2026-04-22 05:52 | 19.40658 | 74.20107 | 20950 ft | 397 kts | 254° |
| 2026-04-22 05:52 | 19.39924 | 74.17289 | 20952 ft | 396 kts | 254° |
| 2026-04-22 05:52 | 19.39188 | 74.14469 | 20949 ft | 397 kts | 254° |
| 2026-04-22 05:53 | 19.38451 | 74.11647 | 20889 ft | 398 kts | 254° |
| 2026-04-22 05:53 | 19.37715 | 74.08829 | 20560 ft | 395 kts | 254° |
| 2026-04-22 05:53 | 19.36979 | 74.06014 | 19923 ft | 397 kts | 254° |
| 2026-04-22 05:53 | 19.36238 | 74.03183 | 18966 ft | 402 kts | 254° |
| 2026-04-22 05:54 | 19.35488 | 74.00316 | 17923 ft | 405 kts | 255° |
| 2026-04-22 05:54 | 19.34737 | 73.97448 | 16859 ft | 402 kts | 254° |
| 2026-04-22 05:54 | 19.34000 | 73.94629 | 16152 ft | 391 kts | 254° |
| 2026-04-22 05:54 | 19.33285 | 73.91898 | 15541 ft | 379 kts | 254° |
| 2026-04-22 05:55 | 19.32590 | 73.89251 | 15106 ft | 366 kts | 254° |
| 2026-04-22 05:55 | 19.31904 | 73.86638 | 14858 ft | 372 kts | 254° |
| 2026-04-22 05:55 | 19.31227 | 73.84060 | 14638 ft | 353 kts | 253° |
| 2026-04-22 05:55 | 19.30588 | 73.81626 | 14467 ft | 334 kts | 253° |
| 2026-04-22 05:56 | 19.29984 | 73.79325 | 14265 ft | 316 kts | 253° |
| 2026-04-22 05:56 | 19.29393 | 73.77084 | 13562 ft | 319 kts | 253° |
| 2026-04-22 05:56 | 19.28787 | 73.74792 | 12690 ft | 330 kts | 253° |
| 2026-04-22 05:56 | 19.28128 | 73.72419 | 11913 ft | 338 kts | 251° |
| 2026-04-22 05:57 | 19.27369 | 73.70068 | 11350 ft | 337 kts | 250° |
| 2026-04-22 05:57 | 19.26610 | 73.67722 | 10827 ft | 336 kts | 250° |
| 2026-04-22 05:57 | 19.25854 | 73.65379 | 10314 ft | 336 kts | 250° |
| 2026-04-22 05:57 | 19.25102 | 73.63048 | 9770 ft | 335 kts | 250° |
| 2026-04-22 05:58 | 19.24350 | 73.60723 | 9252 ft | 332 kts | 250° |
| 2026-04-22 05:58 | 19.23600 | 73.58417 | 8655 ft | 333 kts | 250° |
| 2026-04-22 05:58 | 19.22850 | 73.56110 | 8134 ft | 330 kts | 250° |
| 2026-04-22 05:58 | 19.22103 | 73.53810 | 7619 ft | 330 kts | 250° |
| 2026-04-22 05:59 | 19.21353 | 73.51536 | 7151 ft | 326 kts | 250° |
| 2026-04-22 05:59 | 19.20598 | 73.49268 | 6635 ft | 325 kts | 250° |
| 2026-04-22 05:59 | 19.19862 | 73.47068 | 6098 ft | 324 kts | 250° |
| 2026-04-22 05:59 | 19.19127 | 73.44876 | 5843 ft | 306 kts | 250° |
| 2026-04-22 06:00 | 19.18440 | 73.42848 | 5672 ft | 288 kts | 250° |
| 2026-04-22 06:00 | 19.17781 | 73.40912 | 5483 ft | 272 kts | 250° |
| 2026-04-22 06:00 | 19.17151 | 73.39061 | 5174 ft | 265 kts | 250° |
| 2026-04-22 06:00 | 19.16515 | 73.37214 | 5033 ft | 263 kts | 250° |
| 2026-04-22 06:01 | 19.15890 | 73.35420 | 4986 ft | 263 kts | 250° |
| 2026-04-22 06:01 | 19.15258 | 73.33603 | 4987 ft | 266 kts | 250° |
| 2026-04-22 06:01 | 19.14619 | 73.31760 | 4988 ft | 267 kts | 250° |
| 2026-04-22 06:01 | 19.13976 | 73.29922 | 4992 ft | 268 kts | 250° |
| 2026-04-22 06:02 | 19.13316 | 73.28082 | 4988 ft | 266 kts | 250° |
| 2026-04-22 06:02 | 19.12662 | 73.26256 | 4988 ft | 265 kts | 250° |
| 2026-04-22 06:02 | 19.12017 | 73.24435 | 4965 ft | 264 kts | 250° |
| 2026-04-22 06:02 | 19.11366 | 73.22609 | 4816 ft | 265 kts | 250° |
| 2026-04-22 06:03 | 19.10714 | 73.20785 | 4727 ft | 261 kts | 250° |
| 2026-04-22 06:03 | 19.10076 | 73.18990 | 4375 ft | 263 kts | 250° |
| 2026-04-22 06:03 | 19.09515 | 73.17169 | 4121 ft | 258 kts | 259° |
| 2026-04-22 06:03 | 19.09291 | 73.15303 | 3993 ft | 255 kts | 269° |
| 2026-04-22 06:04 | 19.09238 | 73.13427 | 3958 ft | 258 kts | 272° |
| 2026-04-22 06:04 | 19.09216 | 73.11524 | 3805 ft | 258 kts | 271° |
| 2026-04-22 06:04 | 19.09187 | 73.09626 | 3630 ft | 259 kts | 272° |
| 2026-04-22 06:04 | 19.09161 | 73.07735 | 3469 ft | 252 kts | 272° |
| 2026-04-22 06:05 | 19.09135 | 73.05938 | 3310 ft | 239 kts | 272° |
| 2026-04-22 06:05 | 19.09113 | 73.04188 | 3028 ft | 240 kts | 273° |
| 2026-04-22 06:05 | 19.09090 | 73.02410 | 2697 ft | 242 kts | 272° |
| 2026-04-22 06:05 | 19.09063 | 73.00644 | 2358 ft | 240 kts | 272° |
| 2026-04-22 06:06 | 19.09038 | 72.98885 | 2017 ft | 237 kts | 271° |
| 2026-04-22 06:06 | 19.09016 | 72.97186 | 1764 ft | 223 kts | 270° |
| 2026-04-22 06:06 | 19.08991 | 72.95626 | 1505 ft | 201 kts | 272° |
| 2026-04-22 06:06 | 19.08973 | 72.94237 | 1226 ft | 174 kts | 272° |
| 2026-04-22 06:07 | 19.08956 | 72.93051 | 1006 ft | 152 kts | 273° |
| 2026-04-22 06:07 | 19.08943 | 72.91983 | 837 ft | 138 kts | 272° |
| 2026-04-22 06:07 | 19.08926 | 72.90990 | 670 ft | 135 kts | 272° |
| 2026-04-22 06:07 | 19.08917 | 72.89992 | 509 ft | 134 kts | 270° |
| 2026-04-22 06:08 | 19.08884 | 72.89046 | 349 ft | 127 kts | 271° |
| 2026-04-22 06:08 | 19.08889 | 72.88084 | 180 ft | 132 kts | 271° |
| 2026-04-22 06:08 | 19.08873 | 72.87128 | 35 ft | 124 kts | 270° |
| 2026-04-22 06:08 | 19.08866 | 72.86366 | 30 ft | 84 kts | 270° |
| 2026-04-22 06:09 | 19.08869 | 72.85862 | 30 ft | 55 kts | 270° |
| 2026-04-22 06:09 | 19.08864 | 72.85668 | 30 ft | 27 kts | 268° |
| 2026-04-22 06:09 | 19.08891 | 72.85370 | 30 ft | 28 kts | 294° |
| 2026-04-22 06:09 | 19.08935 | 72.85272 | 30 ft | 20 kts | 295° |
| 2026-04-22 06:10 | 19.09005 | 72.85232 | 30 ft | 7 kts | 33° |
| 2026-04-22 06:10 | 19.09020 | 72.85303 | 30 ft | 16 kts | 87° |
| 2026-04-22 06:10 | 19.09025 | 72.85422 | 30 ft | 17 kts | 88° |
| 2026-04-22 06:10 | 19.09030 | 72.85565 | 30 ft | 19 kts | 89° |
| 2026-04-22 06:11 | 19.09031 | 72.85701 | 30 ft | 18 kts | 89° |
| 2026-04-22 06:11 | 19.09032 | 72.85847 | 30 ft | 21 kts | 90° |
| 2026-04-22 06:11 | 19.09033 | 72.85996 | 30 ft | 20 kts | 90° |
| 2026-04-22 06:11 | 19.09033 | 72.86141 | 30 ft | 20 kts | 90° |
| 2026-04-22 06:12 | 19.09034 | 72.86303 | 30 ft | 24 kts | 90° |
| 2026-04-22 06:12 | 19.09035 | 72.86495 | 30 ft | 28 kts | 90° |
| 2026-04-22 06:12 | 19.09037 | 72.86708 | 30 ft | 30 kts | 89° |
| 2026-04-22 06:12 | 19.09041 | 72.86938 | 30 ft | 32 kts | 89° |
| 2026-04-22 06:13 | 19.09045 | 72.87160 | 30 ft | 28 kts | 89° |
| 2026-04-22 06:13 | 19.09063 | 72.87261 | 30 ft | 8 kts | 33° |
| 2026-04-22 06:13 | 19.09127 | 72.87272 | 30 ft | 7 kts | 360° |
| 2026-04-22 06:13 | 19.09142 | 72.87272 | 30 ft | 4 kts | 360° |
| 2026-04-22 06:14 | 19.09160 | 72.87272 | 30 ft | 0 kts | 359° |
| 2026-04-22 06:14 | 19.09196 | 72.87272 | 30 ft | 9 kts | 360° |
| 2026-04-22 06:14 | 19.09228 | 72.87298 | 30 ft | 7 kts | 81° |
| 2026-04-22 06:15 | 19.09249 | 72.87360 | 30 ft | 11 kts | 41° |
| 2026-04-22 06:15 | 19.09307 | 72.87369 | 30 ft | 8 kts | 355° |
| 2026-04-22 06:15 | 19.09363 | 72.87367 | 30 ft | 5 kts | 338° |
| 2026-04-22 06:15 | 19.09378 | 72.87351 | 30 ft | 1 kts | 301° |
| 2026-04-22 06:16 | 19.09391 | 72.87327 | 30 ft | 5 kts | 300° |
| 2026-04-22 06:16 | 19.09404 | 72.87304 | 30 ft | 3 kts | 299° |
| 2026-04-22 06:16 | 19.09408 | 72.87296 | 30 ft | 0 kts | 299° |